Time;durP1;ratioP1;P1;durP2;ratioP2;P2;SDS_P1;SDS_P2;PMS_P1;PMS_P2;Temp;Humidity;BMP_temperature;BMP_pressure;BME280_temperature;BME280_humidity;BME280_pressure;Samples;Min_cycle;Max_cycle;Signal;HPM_P1;HPM_P2
2021/11/30 00:01:41;;;;;;;0.40;0.20;;;;;;;;;;4198829;28;20061;-34
2021/11/30 00:03:42;;;;;;;0.22;0.20;;;;;;;;;;4198704;28;20056;-33
2021/11/30 00:05:45;;;;;;;0.63;0.30;;;;;;;;;;4198870;28;20078;-33
2021/11/30 00:07:51;;;;;;;0.30;0.20;;;;;;;;;;4198233;28;20053;-33
2021/11/30 00:12:20;;;;;;;0.20;0.20;;;;;;;;;;4158023;28;20048;-34
2021/11/30 00:14:21;;;;;;;0.30;0.20;;;;;;;;;;4198591;28;20338;-33
2021/11/30 00:16:22;;;;;;;0.10;0.10;;;;;;;;;;4198727;28;20052;-33
2021/11/30 00:18:24;;;;;;;0.35;0.30;;;;;;;;;;4198397;28;20485;-34
2021/11/30 00:20:26;;;;;;;0.55;0.28;;;;;;;;;;4198846;28;20109;-34
2021/11/30 00:22:27;;;;;;;0.20;0.20;;;;;;;;;;4198224;28;20110;-34
2021/11/30 00:24:29;;;;;;;0.10;0.10;;;;;;;;;;4197549;28;20057;-33
2021/11/30 00:26:31;;;;;;;0.10;0.10;;;;;;;;;;4198460;28;20061;-33
2021/11/30 00:28:33;;;;;;;0.40;0.20;;;;;;;;;;4197114;28;20057;-34
2021/11/30 00:30:36;;;;;;;0.30;0.30;;;;;;;;;;4198596;28;20060;-33
2021/11/30 00:32:37;;;;;;;0.60;0.20;;;;;;;;;;4198183;28;20064;-33
2021/11/30 00:34:38;;;;;;;0.20;0.20;;;;;;;;;;4198567;28;20045;-33
2021/11/30 00:36:40;;;;;;;0.20;0.20;;;;;;;;;;4198219;28;20098;-34
2021/11/30 00:38:41;;;;;;;0.80;0.65;;;;;;;;;;4163335;28;20575;-33
2021/11/30 00:40:44;;;;;;;0.30;0.10;;;;;;;;;;4198446;28;20114;-34
2021/11/30 00:42:45;;;;;;;0.20;0.20;;;;;;;;;;4198048;28;20056;-33
2021/11/30 00:44:48;;;;;;;0.40;0.20;;;;;;;;;;4198193;28;20142;-34
2021/11/30 00:46:53;;;;;;;0.40;0.30;;;;;;;;;;4198239;28;20060;-33
2021/11/30 00:48:55;;;;;;;0.20;0.20;;;;;;;;;;4198054;28;20546;-34
2021/11/30 00:51:02;;;;;;;0.20;0.20;;;;;;;;;;4198125;28;20118;-34
2021/11/30 00:53:04;;;;;;;0.30;0.25;;;;;;;;;;4197761;28;20064;-33
2021/11/30 00:55:06;;;;;;;0.20;0.17;;;;;;;;;;4197966;28;20056;-34
2021/11/30 00:57:07;;;;;;;0.20;0.20;;;;;;;;;;4196736;28;20060;-33
2021/11/30 00:59:09;;;;;;;0.28;0.28;;;;;;;;;;4197802;28;20094;-33
2021/11/30 01:01:10;;;;;;;0.57;0.30;;;;;;;;;;4188341;28;20061;-33
2021/11/30 01:03:11;;;;;;;0.22;0.20;;;;;;;;;;4165063;28;20062;-34
2021/11/30 01:05:13;;;;;;;0.28;0.17;;;;;;;;;;4164994;28;20053;-33
2021/11/30 01:07:15;;;;;;;0.57;0.20;;;;;;;;;;4164605;28;20057;-34
2021/11/30 01:09:16;;;;;;;0.15;0.15;;;;;;;;;;4179631;28;20057;-34
2021/11/30 01:11:18;;;;;;;0.20;0.10;;;;;;;;;;4181328;28;20057;-34
2021/11/30 01:13:20;;;;;;;0.20;0.20;;;;;;;;;;4181113;28;20539;-33
2021/11/30 01:15:21;;;;;;;0.10;0.10;;;;;;;;;;4181186;28;20048;-33
2021/11/30 01:17:23;;;;;;;0.25;0.20;;;;;;;;;;4179890;28;20409;-34
2021/11/30 01:19:24;;;;;;;0.10;0.10;;;;;;;;;;4179919;28;20061;-33
2021/11/30 01:21:25;;;;;;;0.25;0.13;;;;;;;;;;4181121;28;20497;-33
2021/11/30 01:23:31;;;;;;;0.75;0.20;;;;;;;;;;4180406;28;20068;-34
2021/11/30 01:25:34;;;;;;;0.88;0.20;;;;;;;;;;4181047;28;20056;-33
2021/11/30 01:27:39;;;;;;;0.40;0.30;;;;;;;;;;4180415;28;20138;-34
2021/11/30 01:29:40;;;;;;;0.20;0.20;;;;;;;;;;4181074;28;20049;-34
2021/11/30 01:31:41;;;;;;;0.47;0.30;;;;;;;;;;4181381;28;20057;-34
2021/11/30 01:33:42;;;;;;;0.45;0.30;;;;;;;;;;4180931;28;20492;-33
2021/11/30 01:35:44;;;;;;;0.10;0.10;;;;;;;;;;4180393;28;20107;-34
2021/11/30 01:37:46;;;;;;;0.10;0.10;;;;;;;;;;4172520;28;20057;-33
2021/11/30 01:39:48;;;;;;;0.35;0.20;;;;;;;;;;4180922;28;20104;-33
2021/11/30 01:41:49;;;;;;;0.20;0.20;;;;;;;;;;4163266;28;20061;-34
2021/11/30 01:43:51;;;;;;;0.20;0.20;;;;;;;;;;4179573;28;20061;-33
2021/11/30 01:50:08;;;;;;;0.10;0.10;;;;;;;;;;4180928;28;20098;-33
2021/11/30 01:52:11;;;;;;;0.60;0.32;;;;;;;;;;4180848;28;20068;-33
2021/11/30 01:54:12;;;;;;;0.10;0.10;;;;;;;;;;4162923;28;20085;-34
2021/11/30 01:56:13;;;;;;;0.28;0.20;;;;;;;;;;4147144;28;20108;-33
2021/11/30 01:58:15;;;;;;;0.25;0.22;;;;;;;;;;4162991;28;20551;-33
2021/11/30 02:00:18;;;;;;;0.32;0.30;;;;;;;;;;4180832;28;20469;-33
2021/11/30 02:02:19;;;;;;;0.20;0.20;;;;;;;;;;4180965;28;20461;-33
2021/11/30 02:04:20;;;;;;;0.10;0.10;;;;;;;;;;4180916;28;20048;-33
2021/11/30 02:06:21;;;;;;;0.10;0.10;;;;;;;;;;4180609;28;20401;-34
2021/11/30 02:08:23;;;;;;;0.20;0.20;;;;;;;;;;4180245;28;20057;-33
2021/11/30 02:10:24;;;;;;;0.32;0.22;;;;;;;;;;4180661;28;20477;-33
2021/11/30 02:12:25;;;;;;;0.20;0.20;;;;;;;;;;4180862;28;20064;-34
2021/11/30 02:14:26;;;;;;;0.10;0.10;;;;;;;;;;4180592;28;20378;-33
2021/11/30 02:16:28;;;;;;;0.20;0.15;;;;;;;;;;4180486;28;20057;-33
2021/11/30 02:18:30;;;;;;;0.45;0.30;;;;;;;;;;4180700;28;20115;-33
2021/11/30 02:20:35;;;;;;;0.35;0.20;;;;;;;;;;4180604;28;20088;-34
2021/11/30 02:22:37;;;;;;;0.10;0.10;;;;;;;;;;4180198;28;20390;-33
2021/11/30 02:24:38;;;;;;;0.20;0.20;;;;;;;;;;4180412;28;20053;-34
2021/11/30 02:26:40;;;;;;;0.17;0.10;;;;;;;;;;4162957;28;20057;-33
2021/11/30 02:28:46;;;;;;;0.10;0.10;;;;;;;;;;4180570;28;20053;-33
2021/11/30 02:30:47;;;;;;;0.10;0.10;;;;;;;;;;4189034;28;20474;-33
2021/11/30 02:32:48;;;;;;;0.40;0.20;;;;;;;;;;4196976;28;20544;-33
2021/11/30 02:34:51;;;;;;;0.20;0.20;;;;;;;;;;4197037;28;20072;-33
2021/11/30 02:36:54;;;;;;;0.25;0.20;;;;;;;;;;4197018;28;20493;-33
2021/11/30 02:38:57;;;;;;;0.20;0.13;;;;;;;;;;4196454;28;20052;-33
2021/11/30 02:40:58;;;;;;;0.20;0.13;;;;;;;;;;4197024;28;20562;-34
2021/11/30 02:42:59;;;;;;;0.20;0.10;;;;;;;;;;4179106;28;20057;-33
2021/11/30 02:45:01;;;;;;;0.17;0.10;;;;;;;;;;4197280;28;20106;-33
2021/11/30 02:47:04;;;;;;;0.32;0.20;;;;;;;;;;4198449;28;20056;-33
2021/11/30 02:49:08;;;;;;;0.30;0.20;;;;;;;;;;4199793;28;20049;-33
2021/11/30 02:51:09;;;;;;;0.25;0.17;;;;;;;;;;4200096;28;20060;-34
2021/11/30 02:53:16;;;;;;;0.10;0.10;;;;;;;;;;4181982;28;20053;-33
2021/11/30 02:55:17;;;;;;;0.50;0.30;;;;;;;;;;4199929;28;20114;-33
2021/11/30 02:57:18;;;;;;;0.10;0.10;;;;;;;;;;4199865;28;20059;-33
2021/11/30 02:59:21;;;;;;;0.20;0.13;;;;;;;;;;4199702;28;20052;-33
2021/11/30 03:01:22;;;;;;;0.20;0.20;;;;;;;;;;4182339;28;20155;-33
2021/11/30 03:03:26;;;;;;;0.30;0.20;;;;;;;;;;4200001;28;20098;-33
2021/11/30 03:05:27;;;;;;;0.10;0.10;;;;;;;;;;4199791;28;20057;-33
2021/11/30 03:07:35;;;;;;;0.10;0.10;;;;;;;;;;4199787;28;20361;-33
2021/11/30 03:09:38;;;;;;;0.20;0.20;;;;;;;;;;4199681;28;20052;-33
2021/11/30 03:11:40;;;;;;;0.17;0.17;;;;;;;;;;4199704;28;20056;-33
2021/11/30 03:13:41;;;;;;;0.10;0.10;;;;;;;;;;4199453;28;20056;-33
2021/11/30 03:15:42;;;;;;;0.30;0.30;;;;;;;;;;4199633;28;20098;-33
2021/11/30 03:17:45;;;;;;;0.20;0.20;;;;;;;;;;4199610;28;20056;-33
2021/11/30 03:19:46;;;;;;;0.20;0.10;;;;;;;;;;4199615;28;20065;-33
2021/11/30 03:21:47;;;;;;;0.10;0.10;;;;;;;;;;4199484;28;20083;-33
2021/11/30 03:23:48;;;;;;;0.13;0.13;;;;;;;;;;4198854;28;20496;-33
2021/11/30 03:25:50;;;;;;;0.15;0.10;;;;;;;;;;4199380;28;20079;-34
2021/11/30 03:27:51;;;;;;;0.10;0.10;;;;;;;;;;4199223;28;20060;-33
2021/11/30 03:29:53;;;;;;;0.52;0.15;;;;;;;;;;4199417;28;20056;-33
2021/11/30 03:32:03;;;;;;;0.10;0.10;;;;;;;;;;4199690;28;20060;-33
2021/11/30 03:34:06;;;;;;;0.25;0.20;;;;;;;;;;4199352;28;20052;-33
2021/11/30 03:36:07;;;;;;;0.35;0.20;;;;;;;;;;4199328;28;20065;-33
2021/11/30 03:38:08;;;;;;;0.13;0.10;;;;;;;;;;4199204;28;20103;-33
2021/11/30 03:40:11;;;;;;;0.38;0.20;;;;;;;;;;4199222;28;20488;-33
2021/11/30 03:42:12;;;;;;;0.10;0.10;;;;;;;;;;4199192;28;20060;-33
2021/11/30 03:44:13;;;;;;;0.20;0.20;;;;;;;;;;4199101;28;20056;-34
2021/11/30 03:46:14;;;;;;;0.25;0.15;;;;;;;;;;4199121;28;20108;-34
2021/11/30 03:48:15;;;;;;;0.10;0.10;;;;;;;;;;4198922;28;20052;-34
2021/11/30 03:50:16;;;;;;;0.10;0.10;;;;;;;;;;4199074;28;20411;-33
2021/11/30 03:52:18;;;;;;;0.28;0.20;;;;;;;;;;4199153;28;20060;-34
2021/11/30 03:54:19;;;;;;;0.20;0.20;;;;;;;;;;4198855;28;20529;-34
2021/11/30 03:56:20;;;;;;;0.28;0.20;;;;;;;;;;4199017;28;20378;-34
2021/11/30 03:58:21;;;;;;;0.45;0.20;;;;;;;;;;4197999;28;20056;-34
2021/11/30 04:00:23;;;;;;;0.00;0.00;;;;;;;;;;4198760;28;20060;-33
2021/11/30 04:02:24;;;;;;;0.10;0.10;;;;;;;;;;4192841;28;20061;-34
2021/11/30 04:04:29;;;;;;;0.20;0.20;;;;;;;;;;4165741;28;20489;-36
2021/11/30 04:06:31;;;;;;;0.30;0.20;;;;;;;;;;4166152;28;20057;-33
2021/11/30 04:08:33;;;;;;;0.30;0.22;;;;;;;;;;4165216;28;20057;-33
2021/11/30 04:10:34;;;;;;;0.15;0.10;;;;;;;;;;4165943;28;20494;-33
2021/11/30 04:12:35;;;;;;;0.10;0.10;;;;;;;;;;4165629;28;20103;-33
2021/11/30 04:14:36;;;;;;;0.20;0.15;;;;;;;;;;4194466;28;20106;-33
2021/11/30 04:16:38;;;;;;;0.10;0.10;;;;;;;;;;4198888;28;20061;-33
2021/11/30 04:18:39;;;;;;;0.20;0.20;;;;;;;;;;4198440;28;20098;-33
2021/11/30 04:20:40;;;;;;;0.10;0.10;;;;;;;;;;4198668;28;20409;-33
2021/11/30 04:22:42;;;;;;;0.35;0.20;;;;;;;;;;4197843;28;20053;-33
2021/11/30 04:24:43;;;;;;;0.20;0.17;;;;;;;;;;4198788;28;20063;-33
2021/11/30 04:26:44;;;;;;;0.13;0.10;;;;;;;;;;4198684;28;20113;-33
2021/11/30 04:28:46;;;;;;;0.22;0.15;;;;;;;;;;4198416;28;20107;-34
2021/11/30 04:30:47;;;;;;;0.20;0.10;;;;;;;;;;4180930;28;20065;-33
2021/11/30 04:32:49;;;;;;;0.10;0.10;;;;;;;;;;4198338;28;20078;-34
2021/11/30 04:34:51;;;;;;;0.20;0.20;;;;;;;;;;4198419;28;20559;-33
2021/11/30 04:36:52;;;;;;;0.15;0.10;;;;;;;;;;4198521;28;20052;-33
2021/11/30 04:38:56;;;;;;;0.20;0.10;;;;;;;;;;4197691;28;20053;-33
2021/11/30 04:40:57;;;;;;;0.47;0.13;;;;;;;;;;4180514;28;20535;-33
2021/11/30 04:42:58;;;;;;;0.80;0.20;;;;;;;;;;4198129;28;20057;-34
2021/11/30 04:45:06;;;;;;;0.10;0.10;;;;;;;;;;4198083;28;20496;-33
2021/11/30 04:47:10;;;;;;;0.25;0.25;;;;;;;;;;4198225;28;20057;-33
2021/11/30 04:49:59;;;;;;;0.38;0.17;;;;;;;;;;4197992;28;20057;-33
2021/11/30 04:51:34;;;;;;;0.20;0.20;;;;;;;;;;4187684;28;20056;-34
2021/11/30 04:53:36;;;;;;;0.20;0.17;;;;;;;;;;4197602;28;20060;-33
2021/11/30 04:55:37;;;;;;;0.17;0.10;;;;;;;;;;4198028;28;20446;-33
2021/11/30 04:57:38;;;;;;;0.20;0.17;;;;;;;;;;4196794;28;20431;-34
2021/11/30 04:59:39;;;;;;;0.40;0.20;;;;;;;;;;4180230;28;20057;-33
2021/11/30 05:01:41;;;;;;;0.10;0.10;;;;;;;;;;4197912;28;20064;-33
2021/11/30 05:03:42;;;;;;;0.22;0.15;;;;;;;;;;4197714;28;20435;-33
2021/11/30 05:05:44;;;;;;;0.20;0.20;;;;;;;;;;4197929;28;20056;-33
2021/11/30 05:07:46;;;;;;;0.30;0.20;;;;;;;;;;4197392;28;20048;-34
2021/11/30 05:09:47;;;;;;;0.10;0.10;;;;;;;;;;4196744;28;20056;-33
2021/11/30 05:11:48;;;;;;;0.10;0.10;;;;;;;;;;4198098;28;20064;-33
2021/11/30 05:13:49;;;;;;;0.10;0.10;;;;;;;;;;4197610;28;20056;-34
2021/11/30 05:15:50;;;;;;;0.15;0.15;;;;;;;;;;4198009;28;20056;-34
2021/11/30 05:17:51;;;;;;;0.10;0.10;;;;;;;;;;4197497;28;20056;-33
2021/11/30 05:19:52;;;;;;;0.10;0.10;;;;;;;;;;4180233;28;20057;-33
2021/11/30 05:21:54;;;;;;;0.10;0.10;;;;;;;;;;4197502;28;20102;-34
2021/11/30 05:23:59;;;;;;;0.20;0.10;;;;;;;;;;4196010;28;20056;-34
2021/11/30 05:26:02;;;;;;;0.88;0.10;;;;;;;;;;4197681;28;20098;-33
2021/11/30 05:28:05;;;;;;;0.20;0.20;;;;;;;;;;4197472;28;20485;-33
2021/11/30 05:30:12;;;;;;;0.10;0.10;;;;;;;;;;4197902;28;20053;-34
2021/11/30 05:32:14;;;;;;;0.43;0.20;;;;;;;;;;4179676;28;20045;-33
2021/11/30 05:34:15;;;;;;;0.57;0.20;;;;;;;;;;4197336;28;20059;-34
2021/11/30 05:36:18;;;;;;;0.10;0.10;;;;;;;;;;4197584;28;20382;-33
2021/11/30 05:38:19;;;;;;;0.73;0.22;;;;;;;;;;4196795;28;20060;-33
2021/11/30 05:40:20;;;;;;;0.40;0.28;;;;;;;;;;4196246;28;20083;-34
2021/11/30 05:42:21;;;;;;;0.30;0.20;;;;;;;;;;4197504;28;20060;-34
2021/11/30 05:44:22;;;;;;;0.40;0.28;;;;;;;;;;4197638;28;20102;-34
2021/11/30 05:46:23;;;;;;;0.98;0.30;;;;;;;;;;4197423;28;20102;-34
2021/11/30 05:48:24;;;;;;;1.25;0.20;;;;;;;;;;4197534;28;20098;-34
2021/11/30 05:50:26;;;;;;;1.20;0.28;;;;;;;;;;4197357;28;20377;-34
2021/11/30 05:52:27;;;;;;;0.47;0.30;;;;;;;;;;4197416;28;20056;-34
2021/11/30 05:54:28;;;;;;;0.52;0.20;;;;;;;;;;4196877;28;20060;-34
2021/11/30 05:56:30;;;;;;;0.60;0.30;;;;;;;;;;4197563;28;20056;-34
2021/11/30 05:58:35;;;;;;;0.95;0.30;;;;;;;;;;4197077;28;20128;-34
2021/11/30 06:00:36;;;;;;;0.10;0.10;;;;;;;;;;4197357;28;20086;-33
2021/11/30 06:05:11;;;;;;;0.32;0.20;;;;;;;;;;4141879;28;20056;-34
2021/11/30 06:07:13;;;;;;;0.43;0.22;;;;;;;;;;4196642;28;20548;-33
2021/11/30 06:09:14;;;;;;;0.25;0.10;;;;;;;;;;4196586;28;20102;-33
2021/11/30 06:11:16;;;;;;;0.20;0.20;;;;;;;;;;4197137;28;20053;-34
2021/11/30 06:13:17;;;;;;;0.65;0.35;;;;;;;;;;4197136;28;20071;-34
2021/11/30 06:15:19;;;;;;;1.00;0.20;;;;;;;;;;4197165;28;20418;-34
2021/11/30 06:17:20;;;;;;;0.50;0.30;;;;;;;;;;4197092;28;20492;-33
2021/11/30 06:19:21;;;;;;;1.10;0.30;;;;;;;;;;4197218;28;20094;-34
2021/11/30 06:21:23;;;;;;;0.98;0.30;;;;;;;;;;4179850;28;20057;-34
2021/11/30 06:23:25;;;;;;;0.98;0.43;;;;;;;;;;4199642;28;20155;-34
2021/11/30 06:25:27;;;;;;;0.38;0.20;;;;;;;;;;4200227;28;20060;-34
2021/11/30 06:27:28;;;;;;;1.90;0.25;;;;;;;;;;4199780;28;20492;-33
2021/11/30 06:29:29;;;;;;;0.28;0.20;;;;;;;;;;4181958;28;20111;-34
2021/11/30 06:31:30;;;;;;;0.10;0.10;;;;;;;;;;4182291;28;20053;-33
2021/11/30 06:33:32;;;;;;;0.57;0.30;;;;;;;;;;4182186;28;20053;-34
2021/11/30 06:35:36;;;;;;;0.80;0.30;;;;;;;;;;4182517;28;20053;-34
2021/11/30 06:37:37;;;;;;;0.25;0.20;;;;;;;;;;4193467;28;20065;-33
2021/11/30 06:39:38;;;;;;;1.25;0.20;;;;;;;;;;4189468;28;20056;-34
2021/11/30 06:41:39;;;;;;;0.20;0.20;;;;;;;;;;4198152;28;20385;-33
2021/11/30 06:43:41;;;;;;;0.40;0.22;;;;;;;;;;4199735;28;20065;-33
2021/11/30 06:45:42;;;;;;;0.30;0.30;;;;;;;;;;4182430;28;20477;-33
2021/11/30 06:47:43;;;;;;;1.95;0.40;;;;;;;;;;4168460;28;20061;-33
2021/11/30 06:49:45;;;;;;;0.40;0.20;;;;;;;;;;4171601;28;20074;-33
2021/11/30 06:51:46;;;;;;;0.60;0.20;;;;;;;;;;4172828;28;20280;-33
2021/11/30 06:53:47;;;;;;;0.60;0.20;;;;;;;;;;4174677;28;20111;-35
2021/11/30 06:55:48;;;;;;;0.25;0.20;;;;;;;;;;4183122;28;20154;-34
2021/11/30 06:57:49;;;;;;;0.60;0.43;;;;;;;;;;4178987;28;20056;-34
2021/11/30 06:59:51;;;;;;;0.28;0.20;;;;;;;;;;4181112;28;20418;-34
2021/11/30 07:01:53;;;;;;;0.88;0.30;;;;;;;;;;4158358;28;20057;-34
2021/11/30 07:03:54;;;;;;;0.57;0.30;;;;;;;;;;4172225;28;20064;-33
2021/11/30 07:06:15;;;;;;;1.25;0.20;;;;;;;;;;4176745;28;20061;-34
2021/11/30 07:08:21;;;;;;;1.55;0.30;;;;;;;;;;4175242;28;20048;-34
2021/11/30 07:10:35;;;;;;;0.75;0.32;;;;;;;;;;4174145;28;20099;-34
2021/11/30 07:14:40;;;;;;;0.57;0.30;;;;;;;;;;4184263;28;20057;-34
2021/11/30 07:16:41;;;;;;;0.50;0.40;;;;;;;;;;4179398;28;20053;-34
2021/11/30 07:18:43;;;;;;;1.05;0.50;;;;;;;;;;4179390;28;20562;-33
2021/11/30 07:20:44;;;;;;;0.60;0.35;;;;;;;;;;4174837;28;20059;-34
2021/11/30 07:22:46;;;;;;;0.75;0.32;;;;;;;;;;4173543;28;20091;-34
2021/11/30 07:24:47;;;;;;;2.65;0.40;;;;;;;;;;4176565;28;20441;-33
2021/11/30 07:26:48;;;;;;;3.15;0.30;;;;;;;;;;4160138;28;20061;-34
2021/11/30 07:28:49;;;;;;;0.80;0.30;;;;;;;;;;4154556;28;20151;-34
2021/11/30 07:30:51;;;;;;;0.93;0.30;;;;;;;;;;4165884;28;20120;-34
2021/11/30 07:32:52;;;;;;;0.90;0.35;;;;;;;;;;4162564;28;20513;-33
2021/11/30 07:34:53;;;;;;;1.15;0.30;;;;;;;;;;4173749;28;20534;-34
2021/11/30 07:36:54;;;;;;;2.33;0.30;;;;;;;;;;4174476;28;20053;-34
2021/11/30 07:38:55;;;;;;;0.28;0.28;;;;;;;;;;4169405;28;20111;-33
2021/11/30 07:40:57;;;;;;;1.25;0.50;;;;;;;;;;4173063;28;20097;-34
2021/11/30 07:42:58;;;;;;;1.02;0.35;;;;;;;;;;4167194;28;20473;-34
2021/11/30 07:45:00;;;;;;;1.02;0.30;;;;;;;;;;4164980;28;20078;-33
2021/11/30 07:47:01;;;;;;;3.35;0.38;;;;;;;;;;4161118;28;20088;-33
2021/11/30 07:49:03;;;;;;;4.95;0.47;;;;;;;;;;4164588;28;20057;-33
2021/11/30 07:51:05;;;;;;;1.10;0.68;;;;;;;;;;4167574;28;20445;-34
2021/11/30 07:53:06;;;;;;;1.10;0.30;;;;;;;;;;4162167;28;20115;-32
2021/11/30 07:55:10;;;;;;;1.50;0.50;;;;;;;;;;4169585;28;20052;-33
2021/11/30 07:57:12;;;;;;;3.80;0.52;;;;;;;;;;4161734;28;20049;-34
2021/11/30 07:59:13;;;;;;;3.80;0.43;;;;;;;;;;4168570;28;20103;-33
2021/11/30 08:01:16;;;;;;;1.85;0.30;;;;;;;;;;4156702;28;20118;-33
2021/11/30 08:03:18;;;;;;;1.67;0.30;;;;;;;;;;4155769;28;20147;-33
2021/11/30 08:05:19;;;;;;;0.55;0.32;;;;;;;;;;4168328;28;20057;-33
2021/11/30 08:07:20;;;;;;;0.30;0.30;;;;;;;;;;4158934;28;20058;-33
2021/11/30 08:09:26;;;;;;;0.95;0.40;;;;;;;;;;4160429;28;20543;-33
2021/11/30 08:11:27;;;;;;;0.73;0.40;;;;;;;;;;4162328;28;20057;-33
2021/11/30 08:13:28;;;;;;;0.40;0.28;;;;;;;;;;4159441;28;20126;-33
2021/11/30 08:15:29;;;;;;;2.72;0.85;;;;;;;;;;4157880;28;20065;-33
2021/11/30 08:17:31;;;;;;;0.40;0.40;;;;;;;;;;4166093;28;20224;-33
2021/11/30 08:19:32;;;;;;;1.60;0.40;;;;;;;;;;4166757;28;20110;-33
2021/11/30 08:21:34;;;;;;;0.90;0.40;;;;;;;;;;4167634;28;20489;-33
2021/11/30 08:23:35;;;;;;;1.20;0.40;;;;;;;;;;4166476;28;20060;-33
2021/11/30 08:25:36;;;;;;;2.25;0.40;;;;;;;;;;4137406;28;20594;-33
2021/11/30 08:27:38;;;;;;;1.10;0.40;;;;;;;;;;4161553;28;20056;-34
2021/11/30 08:29:40;;;;;;;0.80;0.30;;;;;;;;;;4165728;28;20049;-34
2021/11/30 08:31:41;;;;;;;1.02;0.50;;;;;;;;;;4165377;28;20403;-33
2021/11/30 08:33:42;;;;;;;1.10;0.43;;;;;;;;;;4170360;28;20106;-33
2021/11/30 08:35:44;;;;;;;2.67;0.30;;;;;;;;;;4165200;28;20064;-34
2021/11/30 08:37:45;;;;;;;2.17;0.60;;;;;;;;;;4168132;28;20061;-36
2021/11/30 08:39:49;;;;;;;0.45;0.43;;;;;;;;;;4165130;28;20080;-35
2021/11/30 08:41:50;;;;;;;2.63;0.50;;;;;;;;;;4170558;28;20106;-42
2021/11/30 08:43:51;;;;;;;1.00;0.47;;;;;;;;;;4166796;28;20473;-36
2021/11/30 08:45:54;;;;;;;0.82;0.43;;;;;;;;;;4169584;28;20129;-37
2021/11/30 08:47:55;;;;;;;0.88;0.30;;;;;;;;;;4172282;28;20110;-35
2021/11/30 08:49:57;;;;;;;1.83;0.25;;;;;;;;;;4163240;28;20485;-35
2021/11/30 08:51:58;;;;;;;1.85;0.47;;;;;;;;;;4162455;28;20498;-37
2021/11/30 08:54:00;;;;;;;0.40;0.30;;;;;;;;;;4152266;28;20220;-36
2021/11/30 08:56:05;;;;;;;0.80;0.32;;;;;;;;;;4169436;28;20049;-36
2021/11/30 08:58:07;;;;;;;1.75;0.38;;;;;;;;;;4168717;28;20103;-37
2021/11/30 09:00:15;;;;;;;1.15;0.50;;;;;;;;;;4167618;28;20091;-37
2021/11/30 09:02:17;;;;;;;0.75;0.32;;;;;;;;;;4159698;28;20158;-37
2021/11/30 09:04:18;;;;;;;0.90;0.40;;;;;;;;;;4164876;28;20417;-36
2021/11/30 09:06:19;;;;;;;1.70;0.47;;;;;;;;;;4165918;28;20574;-37
2021/11/30 09:08:21;;;;;;;1.90;0.40;;;;;;;;;;4167642;28;20095;-38
2021/11/30 09:10:22;;;;;;;1.33;0.55;;;;;;;;;;4152307;28;20394;-37
2021/11/30 09:12:24;;;;;;;1.05;0.40;;;;;;;;;;4170611;28;20106;-36
2021/11/30 09:14:26;;;;;;;2.15;0.52;;;;;;;;;;4162542;28;20045;-37
2021/11/30 09:16:27;;;;;;;0.40;0.30;;;;;;;;;;4165492;28;20085;-37
2021/11/30 09:18:30;;;;;;;2.83;0.50;;;;;;;;;;4166323;28;20538;-36
2021/11/30 09:20:32;;;;;;;2.30;0.60;;;;;;;;;;4162308;28;20061;-36
2021/11/30 09:22:33;;;;;;;0.70;0.50;;;;;;;;;;4152550;28;20837;-36
2021/11/30 09:24:35;;;;;;;0.75;0.55;;;;;;;;;;4148290;28;20105;-36
2021/11/30 09:26:37;;;;;;;1.35;0.75;;;;;;;;;;4161026;28;20457;-36
2021/11/30 09:28:39;;;;;;;0.75;0.60;;;;;;;;;;4165202;28;20057;-37
2021/11/30 09:30:41;;;;;;;0.73;0.38;;;;;;;;;;4162180;28;20060;-37
2021/11/30 09:32:42;;;;;;;1.05;0.68;;;;;;;;;;4164900;28;20126;-38
2021/11/30 09:34:43;;;;;;;2.95;0.80;;;;;;;;;;4168589;28;20114;-37
2021/11/30 09:36:47;;;;;;;1.92;0.80;;;;;;;;;;4163327;28;20057;-37
2021/11/30 09:38:48;;;;;;;0.80;0.60;;;;;;;;;;4156378;28;20114;-36
2021/11/30 09:40:54;;;;;;;2.70;0.90;;;;;;;;;;4165927;28;20230;-35
2021/11/30 09:42:55;;;;;;;2.80;0.82;;;;;;;;;;4154337;28;20065;-36
2021/11/30 09:44:57;;;;;;;1.25;0.80;;;;;;;;;;4165890;28;20103;-37
2021/11/30 09:46:59;;;;;;;1.27;0.80;;;;;;;;;;4167549;28;20102;-36
2021/11/30 09:49:00;;;;;;;2.22;0.82;;;;;;;;;;4145930;28;20060;-37
2021/11/30 09:51:03;;;;;;;1.52;0.82;;;;;;;;;;4146743;28;20062;-36
2021/11/30 09:53:05;;;;;;;1.10;0.70;;;;;;;;;;4161757;28;20351;-36
2021/11/30 09:55:12;;;;;;;1.92;0.70;;;;;;;;;;4166630;28;20082;-37
2021/11/30 09:57:14;;;;;;;1.70;0.95;;;;;;;;;;4169055;28;20068;-36
2021/11/30 09:59:15;;;;;;;1.60;0.73;;;;;;;;;;4162057;28;20049;-36
2021/11/30 10:01:17;;;;;;;2.05;0.85;;;;;;;;;;4162456;28;21869;-35
2021/11/30 10:03:19;;;;;;;1.45;0.80;;;;;;;;;;4164699;28;20525;-36
2021/11/30 10:05:20;;;;;;;2.42;1.00;;;;;;;;;;4158176;28;20057;-36
2021/11/30 10:07:51;;;;;;;4.07;1.20;;;;;;;;;;4143577;28;20704;-35
2021/11/30 10:10:21;;;;;;;1.88;0.93;;;;;;;;;;4163632;28;20489;-35
2021/11/30 10:12:22;;;;;;;2.15;0.98;;;;;;;;;;4169467;28;20111;-35
2021/11/30 10:14:27;;;;;;;1.73;0.93;;;;;;;;;;4166760;28;20533;-35
2021/11/30 10:16:28;;;;;;;2.58;0.93;;;;;;;;;;4166946;28;20103;-36
2021/11/30 10:18:42;;;;;;;2.03;0.90;;;;;;;;;;4154426;28;20049;-36
2021/11/30 10:20:45;;;;;;;3.55;1.08;;;;;;;;;;4153195;28;20058;-37
2021/11/30 10:22:51;;;;;;;3.42;1.08;;;;;;;;;;4162165;28;20449;-36
2021/11/30 10:25:12;;;;;;;3.25;1.20;;;;;;;;;;4162292;28;20406;-39
2021/11/30 10:27:13;;;;;;;1.45;1.10;;;;;;;;;;4164338;28;20080;-37
2021/11/30 10:29:17;;;;;;;4.20;1.17;;;;;;;;;;4164259;28;20207;-35
2021/11/30 10:31:23;;;;;;;2.65;1.17;;;;;;;;;;4164585;28;20933;-34
2021/11/30 10:33:27;;;;;;;2.15;1.17;;;;;;;;;;4163970;28;20056;-36
2021/11/30 10:35:29;;;;;;;3.15;1.20;;;;;;;;;;4151244;28;20457;-36
2021/11/30 10:37:30;;;;;;;2.40;1.05;;;;;;;;;;4160234;28;20123;-34
2021/11/30 10:39:35;;;;;;;2.53;1.40;;;;;;;;;;4163156;28;20107;-36
2021/11/30 10:41:36;;;;;;;1.00;0.70;;;;;;;;;;4168368;28;20057;-36
2021/11/30 10:44:03;;;;;;;3.40;1.40;;;;;;;;;;4171462;28;20068;-36
2021/11/30 10:46:08;;;;;;;1.83;1.08;;;;;;;;;;4169194;28;20118;-36
2021/11/30 10:48:12;;;;;;;3.10;1.20;;;;;;;;;;4166804;28;20428;-36
2021/11/30 10:50:21;;;;;;;2.47;1.25;;;;;;;;;;4166542;28;20550;-36
2021/11/30 10:52:26;;;;;;;1.83;1.23;;;;;;;;;;4171795;28;20095;-36
2021/11/30 10:54:36;;;;;;;2.03;1.33;;;;;;;;;;4166443;28;20654;-36
2021/11/30 10:56:40;;;;;;;2.03;1.30;;;;;;;;;;4165475;28;20057;-36
2021/11/30 10:58:42;;;;;;;2.67;1.40;;;;;;;;;;4164141;28;20115;-36
2021/11/30 11:00:43;;;;;;;1.60;1.10;;;;;;;;;;4166195;28;20054;-36
2021/11/30 11:02:50;;;;;;;2.38;1.23;;;;;;;;;;4163151;28;20064;-36
2021/11/30 11:04:51;;;;;;;2.25;1.00;;;;;;;;;;4164627;28;20445;-36
2021/11/30 11:07:13;;;;;;;3.38;1.52;;;;;;;;;;4130534;28;20050;-36
2021/11/30 11:09:14;;;;;;;2.97;1.00;;;;;;;;;;4168070;28;20342;-36
2021/11/30 11:11:27;;;;;;;2.13;1.17;;;;;;;;;;4171408;28;20606;-36
2021/11/30 11:13:30;;;;;;;3.85;0.98;;;;;;;;;;4169136;28;20325;-36
2021/11/30 11:15:37;;;;;;;2.80;0.90;;;;;;;;;;4154001;28;20049;-36
2021/11/30 11:17:39;;;;;;;0.98;0.70;;;;;;;;;;4165683;28;20057;-36
2021/11/30 11:19:44;;;;;;;1.40;0.80;;;;;;;;;;4167132;28;20061;-36
2021/11/30 11:21:46;;;;;;;2.15;1.02;;;;;;;;;;4170410;28;20057;-36
2021/11/30 11:24:06;;;;;;;0.82;0.70;;;;;;;;;;4168333;28;20571;-35
2021/11/30 11:26:29;;;;;;;2.83;0.98;;;;;;;;;;4160342;28;20040;-36
2021/11/30 11:28:31;;;;;;;1.70;0.70;;;;;;;;;;4160906;28;20094;-36
2021/11/30 11:30:32;;;;;;;1.52;0.93;;;;;;;;;;4162549;28;20378;-35
2021/11/30 11:32:33;;;;;;;1.88;0.80;;;;;;;;;;4169164;28;20083;-36
2021/11/30 11:34:35;;;;;;;1.60;0.88;;;;;;;;;;4168406;28;20053;-37
2021/11/30 11:36:37;;;;;;;0.88;0.80;;;;;;;;;;4170348;28;20052;-36
2021/11/30 11:38:39;;;;;;;1.35;0.80;;;;;;;;;;4162270;28;20061;-36
2021/11/30 11:40:41;;;;;;;1.30;0.80;;;;;;;;;;4162168;28;20115;-36
2021/11/30 11:42:43;;;;;;;1.08;0.60;;;;;;;;;;4166047;28;20061;-35
2021/11/30 11:44:44;;;;;;;2.45;0.50;;;;;;;;;;4144387;28;20457;-35
2021/11/30 11:46:48;;;;;;;1.38;0.88;;;;;;;;;;4158810;28;20053;-36
2021/11/30 11:48:56;;;;;;;0.85;0.75;;;;;;;;;;4162735;28;20519;-35
2021/11/30 11:50:59;;;;;;;1.95;0.85;;;;;;;;;;4164881;28;20126;-35
2021/11/30 11:53:01;;;;;;;2.50;1.00;;;;;;;;;;4163675;28;20118;-36
2021/11/30 11:55:10;;;;;;;2.20;0.80;;;;;;;;;;4150052;28;20790;-36
2021/11/30 11:57:11;;;;;;;1.90;0.75;;;;;;;;;;4152754;28;20110;-36
2021/11/30 11:59:18;;;;;;;3.30;0.98;;;;;;;;;;4152547;28;20580;-35
2021/11/30 12:01:23;;;;;;;1.05;0.70;;;;;;;;;;4145329;28;20058;-36
2021/11/30 12:03:51;;;;;;;2.03;0.90;;;;;;;;;;4162501;28;20053;-35
2021/11/30 12:05:53;;;;;;;1.88;0.95;;;;;;;;;;4161636;28;20079;-36
2021/11/30 12:08:01;;;;;;;1.65;0.60;;;;;;;;;;4166732;28;22137;-37
2021/11/30 12:10:17;;;;;;;2.35;0.77;;;;;;;;;;4164955;28;20042;-36
2021/11/30 12:12:23;;;;;;;1.75;0.50;;;;;;;;;;4168197;28;20057;-36
2021/11/30 12:14:33;;;;;;;2.22;0.80;;;;;;;;;;4162128;28;20107;-38
2021/11/30 12:17:10;;;;;;;;;;;;;;;;;;4167432;28;20061;-36
2021/11/30 12:19:28;;;;;;;1.55;0.60;;;;;;;;;;4115605;28;19929;-36
2021/11/30 12:21:32;;;;;;;1.30;0.70;;;;;;;;;;4130215;28;20108;-36
2021/11/30 12:23:34;;;;;;;1.00;0.65;;;;;;;;;;4147554;28;20466;-36
2021/11/30 12:25:45;;;;;;;0.93;0.57;;;;;;;;;;4163924;28;20111;-36
2021/11/30 12:27:47;;;;;;;1.00;0.57;;;;;;;;;;4163951;28;20065;-36
2021/11/30 12:29:50;;;;;;;1.00;0.40;;;;;;;;;;4165254;28;20446;-36